createdAt,value
2019-03-30T00:04:47.770Z,99.90
2019-03-30T00:09:48.865Z,99.90
2019-03-30T00:14:50.025Z,99.90
2019-03-30T00:19:51.132Z,99.90
2019-03-30T00:24:52.235Z,99.90
2019-03-30T00:29:53.324Z,99.90
2019-03-30T00:34:54.427Z,99.90
2019-03-30T00:39:55.545Z,99.90
2019-03-30T00:45:10.779Z,99.90
2019-03-30T00:50:12.101Z,99.90
2019-03-30T00:55:13.204Z,99.90
2019-03-30T01:00:15.888Z,99.90
2019-03-30T01:05:17.019Z,99.90
2019-03-30T01:10:18.416Z,99.90
2019-03-30T01:15:19.516Z,99.90
2019-03-30T01:20:20.614Z,99.90
2019-03-30T01:25:21.807Z,99.90
2019-03-30T01:30:23.665Z,99.90
2019-03-30T01:35:25.177Z,99.90
2019-03-30T01:40:26.404Z,99.90
2019-03-30T01:45:27.499Z,99.90
2019-03-30T01:50:28.614Z,99.90
2019-03-30T01:55:29.703Z,99.90
2019-03-30T02:00:31.121Z,99.90
2019-03-30T02:05:32.209Z,99.90
2019-03-30T02:10:38.998Z,99.90
2019-03-30T02:15:40.288Z,99.90
2019-03-30T02:20:45.860Z,99.90
2019-03-30T02:25:46.956Z,99.90
2019-03-30T02:30:48.055Z,99.90
2019-03-30T02:35:49.151Z,99.90
2019-03-30T02:40:50.254Z,99.90
2019-03-30T02:45:51.357Z,99.90
2019-03-30T02:50:52.479Z,99.90
2019-03-30T02:55:53.577Z,99.90
2019-03-30T03:00:54.685Z,99.90
2019-03-30T03:05:55.783Z,99.90
2019-03-30T03:10:56.879Z,99.90
2019-03-30T03:15:59.053Z,99.90
2019-03-30T03:21:08.014Z,99.90
2019-03-30T03:26:03.353Z,99.90
2019-03-30T03:31:04.462Z,99.90
2019-03-30T03:36:05.731Z,99.90
2019-03-30T03:41:07.051Z,99.90
2019-03-30T03:46:08.136Z,99.90
2019-03-30T03:51:25.111Z,99.90
2019-03-30T03:56:13.551Z,99.90
2019-03-30T04:01:17.363Z,99.90
2019-03-30T04:06:20.866Z,99.90
2019-03-30T04:11:22.175Z,99.90
2019-03-30T04:16:23.265Z,99.90
2019-03-30T04:21:42.429Z,99.90
2019-03-30T04:26:27.358Z,99.90
2019-03-30T04:31:28.456Z,99.90
2019-03-30T04:36:29.637Z,99.90
2019-03-30T04:41:30.725Z,99.90
2019-03-30T04:46:31.827Z,99.90
2019-03-30T04:51:32.922Z,99.90
2019-03-30T04:56:34.015Z,99.90
2019-03-30T05:01:35.219Z,99.90
2019-03-30T05:06:36.302Z,99.90
2019-03-30T05:11:37.402Z,99.90
2019-03-30T05:16:38.503Z,99.90
2019-03-30T05:21:39.671Z,99.90
2019-03-30T05:26:40.799Z,99.90
2019-03-30T05:31:41.890Z,99.90
2019-03-30T05:36:43.000Z,99.90
2019-03-30T05:41:44.084Z,99.90
2019-03-30T05:46:45.180Z,99.90
2019-03-30T05:51:46.271Z,99.90
2019-03-30T05:56:47.370Z,99.90
2019-03-30T06:01:48.483Z,99.90
2019-03-30T06:06:49.591Z,99.90
2019-03-30T06:11:50.671Z,99.90
2019-03-30T06:16:51.758Z,99.90
2019-03-30T06:21:52.861Z,99.90
2019-03-30T06:26:53.959Z,99.90
2019-03-30T06:31:55.073Z,99.90
2019-03-30T06:36:56.166Z,99.90
2019-03-30T06:41:57.419Z,99.90
2019-03-30T06:46:58.502Z,99.90
2019-03-30T06:51:59.627Z,99.90
2019-03-30T06:57:00.722Z,99.90
2019-03-30T07:02:01.932Z,99.90
2019-03-30T07:07:03.027Z,99.90
2019-03-30T07:12:04.933Z,99.90
2019-03-30T07:17:09.832Z,99.90
2019-03-30T07:22:10.948Z,99.90
2019-03-30T07:27:12.028Z,99.90
2019-03-30T07:32:13.118Z,99.90
2019-03-30T07:37:14.243Z,99.90
2019-03-30T07:42:15.395Z,99.90
2019-03-30T07:47:16.491Z,99.90
2019-03-30T07:52:17.582Z,99.90
2019-03-30T07:57:18.716Z,99.90
2019-03-30T08:02:19.852Z,99.90
2019-03-30T08:07:20.954Z,99.90
2019-03-30T08:12:22.112Z,99.90
2019-03-30T08:17:23.216Z,99.90
2019-03-30T08:22:24.313Z,99.90
2019-03-30T08:27:25.413Z,99.60
2019-03-30T08:32:26.508Z,92.80
2019-03-30T08:37:27.607Z,86.50
2019-03-30T08:42:28.733Z,81.30
2019-03-30T08:47:29.840Z,72.40
2019-03-30T08:52:31.040Z,74.80
2019-03-30T08:57:32.162Z,67.30
2019-03-30T09:02:33.382Z,64.40
2019-03-30T09:07:34.467Z,61.80
2019-03-30T09:12:35.887Z,64.40
2019-03-30T09:17:37.479Z,59.80
2019-03-30T09:22:39.017Z,57.90
2019-03-30T09:27:40.281Z,53.10
2019-03-30T09:32:44.831Z,51.40
2019-03-30T09:37:44.432Z,48.20
2019-03-30T09:42:45.527Z,45.40
2019-03-30T09:47:46.645Z,42.60
2019-03-30T09:52:47.763Z,41.50
2019-03-30T09:57:48.891Z,39.60
2019-03-30T10:02:50.006Z,40.30
2019-03-30T10:07:51.140Z,37.80
2019-03-30T10:12:52.234Z,37.00
2019-03-30T10:17:53.392Z,34.50
2019-03-30T10:22:54.588Z,35.30
2019-03-30T10:27:55.803Z,31.00
2019-03-30T10:32:57.943Z,30.90
2019-03-30T10:38:00.698Z,28.80
2019-03-30T10:43:03.377Z,29.80
2019-03-30T10:48:04.550Z,28.70
2019-03-30T10:53:06.744Z,28.00
2019-03-30T10:58:09.501Z,29.70
2019-03-30T11:03:12.566Z,30.20
2019-03-30T11:08:13.773Z,29.20
2019-03-30T11:13:15.012Z,28.20
2019-03-30T11:18:16.981Z,25.70
2019-03-30T11:23:18.152Z,25.70
2019-03-30T11:28:20.279Z,24.10
2019-03-30T11:33:23.135Z,24.60
2019-03-30T11:38:24.252Z,22.60
2019-03-30T11:43:26.735Z,20.60
2019-03-30T11:48:27.865Z,20.70
2019-03-30T11:53:30.816Z,21.60
2019-03-30T11:58:32.870Z,17.00
2019-03-30T12:03:35.722Z,19.00
2019-03-30T12:08:37.453Z,18.50
2019-03-30T12:13:40.287Z,17.90
2019-03-30T12:18:43.333Z,18.00
2019-03-30T12:23:44.525Z,19.10
2019-03-30T12:28:45.735Z,18.30
2019-03-30T12:33:48.572Z,18.00
2019-03-30T12:38:49.683Z,18.50
2019-03-30T12:43:50.894Z,17.00
2019-03-30T12:48:53.638Z,17.10
2019-03-30T12:53:56.535Z,16.90
2019-03-30T12:58:58.387Z,16.50
2019-03-30T13:04:01.632Z,16.40
2019-03-30T13:09:04.716Z,14.70
2019-03-30T13:14:07.335Z,14.40
2019-03-30T13:19:08.479Z,15.70
2019-03-30T13:24:09.659Z,15.30
2019-03-30T13:29:12.271Z,16.50
2019-03-30T13:34:15.079Z,16.10
2019-03-30T13:39:17.371Z,15.40
2019-03-30T13:44:18.470Z,14.90
2019-03-30T13:49:21.311Z,15.80
2019-03-30T13:54:26.906Z,16.00
2019-03-30T13:59:29.805Z,16.20
2019-03-30T14:04:34.463Z,16.20
2019-03-30T14:09:35.680Z,15.80
2019-03-30T14:14:36.773Z,17.00
2019-03-30T14:19:37.876Z,17.30
2019-03-30T14:24:40.641Z,15.80
2019-03-30T14:29:42.540Z,16.00
2019-03-30T14:34:43.763Z,16.40
2019-03-30T14:39:46.641Z,16.00
2019-03-30T14:44:47.791Z,17.10
2019-03-30T14:49:48.899Z,16.50
2019-03-30T14:54:52.934Z,15.60
2019-03-30T14:59:53.012Z,15.00
2019-03-30T15:04:56.276Z,15.70
2019-03-30T15:09:57.907Z,15.90
2019-03-30T15:15:00.616Z,16.60
2019-03-30T15:20:04.746Z,16.50
2019-03-30T15:25:07.477Z,16.00
2019-03-30T15:30:09.211Z,15.80
2019-03-30T15:35:11.781Z,16.70
2019-03-30T15:40:13.297Z,17.70
2019-03-30T15:45:15.706Z,17.10
2019-03-30T15:50:18.842Z,16.40
2019-03-30T15:55:20.450Z,15.90
2019-03-30T16:00:21.768Z,16.90
2019-03-30T16:05:24.588Z,17.10
2019-03-30T16:10:25.751Z,16.40
2019-03-30T16:15:26.855Z,16.70
2019-03-30T16:20:29.518Z,18.60
2019-03-30T16:25:30.765Z,18.30
2019-03-30T16:30:32.625Z,18.70
2019-03-30T16:35:33.728Z,18.60
2019-03-30T16:40:36.316Z,18.00
2019-03-30T16:45:38.658Z,19.40
2019-03-30T16:50:39.780Z,20.50
2019-03-30T16:55:41.004Z,20.70
2019-03-30T17:00:55.650Z,19.60
2019-03-30T17:05:46.977Z,20.20
2019-03-30T17:10:51.343Z,20.90
2019-03-30T17:15:54.318Z,20.90
2019-03-30T17:20:57.269Z,22.60
2019-03-30T17:25:59.799Z,23.60
2019-03-30T17:31:02.301Z,25.20
2019-03-30T17:36:03.414Z,27.80
2019-03-30T17:41:06.628Z,31.90
2019-03-30T17:46:07.944Z,38.00
2019-03-30T17:51:09.615Z,42.50
2019-03-30T17:56:10.726Z,45.10
2019-03-30T18:01:15.886Z,46.60
2019-03-30T18:06:17.185Z,46.50
2019-03-30T18:11:19.979Z,48.00
2019-03-30T18:16:22.652Z,47.90
2019-03-30T18:21:25.726Z,48.80
2019-03-30T18:26:28.647Z,50.40
2019-03-30T18:31:31.082Z,52.20
2019-03-30T18:36:34.546Z,53.30
2019-03-30T18:41:35.731Z,55.30
2019-03-30T18:46:37.829Z,57.60
2019-03-30T18:51:41.034Z,60.70
2019-03-30T18:56:42.380Z,65.60
2019-03-30T19:01:44.954Z,73.10
2019-03-30T19:06:47.262Z,85.00
2019-03-30T19:11:50.213Z,92.10
2019-03-30T19:16:53.132Z,97.50
2019-03-30T19:21:54.414Z,99.90
2019-03-30T19:26:55.765Z,99.90
2019-03-30T19:31:57.242Z,99.90
2019-03-30T19:37:00.689Z,99.90
2019-03-30T19:42:03.598Z,99.90
2019-03-30T19:47:04.891Z,99.90
2019-03-30T19:52:06.102Z,99.90
2019-03-30T19:57:07.248Z,99.90
2019-03-30T20:02:09.683Z,99.90
2019-03-30T20:07:11.233Z,99.90
2019-03-30T20:12:15.127Z,99.90
2019-03-30T20:17:16.716Z,99.90
2019-03-30T20:22:21.059Z,99.90
2019-03-30T20:27:23.804Z,99.90
2019-03-30T20:32:27.004Z,99.90
2019-03-30T20:37:28.553Z,99.90
2019-03-30T20:42:32.195Z,99.90
2019-03-30T20:47:33.858Z,99.90
2019-03-30T20:52:36.929Z,99.90
2019-03-30T20:57:40.046Z,99.90
2019-03-30T21:02:41.324Z,99.90
2019-03-30T21:07:42.468Z,99.90
2019-03-30T21:12:47.085Z,99.90
2019-03-30T21:17:48.252Z,99.90
2019-03-30T21:22:49.377Z,99.90
2019-03-30T21:27:51.670Z,99.90
2019-03-30T21:32:53.422Z,99.90
2019-03-30T21:37:58.432Z,99.90
2019-03-30T21:42:59.562Z,99.90
2019-03-30T21:48:02.616Z,99.90
2019-03-30T21:53:04.416Z,99.90
2019-03-30T21:58:05.618Z,99.90
2019-03-30T22:03:07.279Z,99.90
2019-03-30T22:08:08.388Z,99.90
2019-03-30T22:13:10.755Z,99.90
2019-03-30T22:18:13.424Z,99.90
2019-03-30T22:23:15.706Z,99.90
2019-03-30T22:28:18.871Z,99.90
2019-03-30T22:33:21.304Z,99.90
2019-03-30T22:38:24.574Z,99.90
2019-03-30T22:43:26.788Z,99.90
2019-03-30T22:48:28.620Z,99.90
2019-03-30T22:53:29.755Z,99.90
2019-03-30T22:58:32.878Z,99.90
2019-03-30T23:03:34.968Z,99.90
2019-03-30T23:08:36.050Z,99.90
2019-03-30T23:13:38.334Z,99.90
2019-03-30T23:18:39.590Z,99.90
2019-03-30T23:23:40.705Z,99.90
2019-03-30T23:28:43.756Z,99.90
2019-03-30T23:33:45.054Z,99.90
2019-03-30T23:38:49.092Z,99.90
2019-03-30T23:43:52.158Z,99.90
2019-03-30T23:48:55.166Z,99.90
2019-03-30T23:53:56.347Z,99.90
2019-03-30T23:58:59.417Z,99.90
